Rechercher aéroport 
image banner adimage banner adimage banner ad
image banner ad

O57 - Bryant Field

Situé à Bridgeport, United States

ICAO - O57, IATA -

Données fournies par Airmate  

Information générale

Coordonnées: N38°15'53" W119°13'22"
Élévation : 6472 feet MSL.
Variation magnétique : 16° East
Voir autres Aéroports à California

Données opérationnelles

Special qualification required
Heure actuelle UTC:
Heure actuelle locale:
Météo à : KHTH - Hawthorne Industrial ( 60 km )
METAR: KHTH 262255Z AUTO 11011KT 8SM CLR 39/M01 A2989 RMK A01
Voir NOTAMs / SUP AIP / TFR affectant cet aéroport [VIEW]
Fréquences de communication: [VIEW]

Pistes:

Identifiant RWYQFULongueur (ft)Largeur (ft)SurfaceLDA (ft)
16385460ASPH
34385460ASPH

Coordonnées de l'aéroport

Adresse: Bridgeport United States

Vue satellite de O57